createdAt,value
2018-05-27T00:00:05.526Z,1017.39
2018-05-27T00:01:05.561Z,1017.41
2018-05-27T00:02:05.573Z,1017.39
2018-05-27T00:04:05.624Z,1017.38
2018-05-27T00:05:05.648Z,1017.37
2018-05-27T00:06:05.671Z,1017.34
2018-05-27T00:07:05.699Z,1017.37
2018-05-27T00:08:05.718Z,1017.36
2018-05-27T00:09:05.756Z,1017.42
2018-05-27T00:10:05.767Z,1017.42
2018-05-27T00:11:05.796Z,1017.39
2018-05-27T00:12:05.814Z,1017.41
2018-05-27T00:13:05.841Z,1017.35
2018-05-27T00:14:05.870Z,1017.39
2018-05-27T00:15:05.892Z,1017.39
2018-05-27T00:16:05.918Z,1017.34
2018-05-27T00:17:05.988Z,1017.32
2018-05-27T00:18:05.972Z,1017.3
2018-05-27T00:20:06.012Z,1017.28
2018-05-27T00:21:06.032Z,1017.28
2018-05-27T00:22:06.071Z,1017.25
2018-05-27T00:23:06.083Z,1017.26
2018-05-27T00:24:06.105Z,1017.24
2018-05-27T00:25:06.131Z,1017.25
2018-05-27T00:26:06.155Z,1017.22
2018-05-27T00:27:06.181Z,1017.25
2018-05-27T00:28:06.199Z,1017.22
2018-05-27T00:29:06.227Z,1017.24
2018-05-27T00:30:06.247Z,1017.23
2018-05-27T00:31:06.274Z,1017.23
2018-05-27T00:32:06.294Z,1017.24
2018-05-27T00:33:06.323Z,1017.23
2018-05-27T00:34:06.345Z,1017.2
2018-05-27T00:36:06.390Z,1017.21
2018-05-27T00:37:06.414Z,1017.17
2018-05-27T00:38:06.441Z,1017.17
2018-05-27T00:39:06.461Z,1017.16
2018-05-27T00:40:06.489Z,1017.17
2018-05-27T00:41:06.507Z,1017.16
2018-05-27T00:42:06.540Z,1017.18
2018-05-27T00:43:06.555Z,1017.24
2018-05-27T00:44:06.579Z,1017.18
2018-05-27T00:45:06.608Z,1017.2
2018-05-27T00:46:06.630Z,1017.22
2018-05-27T00:47:06.655Z,1017.22
2018-05-27T00:48:06.674Z,1017.21
2018-05-27T00:49:06.703Z,1017.24
2018-05-27T00:51:06.747Z,1017.22
2018-05-27T00:52:06.770Z,1017.25
2018-05-27T00:53:06.798Z,1017.26
2018-05-27T00:54:06.822Z,1017.24
2018-05-27T00:55:06.842Z,1017.3
2018-05-27T00:56:06.869Z,1017.29
2018-05-27T00:57:06.893Z,1017.25
2018-05-27T00:58:06.912Z,1017.24
2018-05-27T00:59:06.943Z,1017.27
2018-05-27T01:00:06.959Z,1017.29
2018-05-27T01:01:06.984Z,1017.31
2018-05-27T01:02:07.013Z,1017.29
2018-05-27T01:03:07.031Z,1017.31
2018-05-27T01:04:07.059Z,1017.3
2018-05-27T01:05:07.080Z,1017.28
2018-05-27T01:06:07.113Z,1017.3
2018-05-27T01:07:07.126Z,1017.27
2018-05-27T01:08:07.151Z,1017.27
2018-05-27T01:09:07.175Z,1017.28
2018-05-27T01:10:07.201Z,1017.27
2018-05-27T01:11:07.225Z,1017.25
2018-05-27T01:12:07.245Z,1017.23
2018-05-27T01:13:07.269Z,1017.24
2018-05-27T01:14:07.292Z,1017.25
2018-05-27T01:15:07.314Z,1017.29
2018-05-27T01:16:07.343Z,1017.27
2018-05-27T01:17:07.367Z,1017.23
2018-05-27T01:18:07.440Z,1017.21
2018-05-27T01:19:07.410Z,1017.23
2018-05-27T01:20:07.438Z,1017.2
2018-05-27T01:21:07.458Z,1017.18
2018-05-27T01:23:07.508Z,1017.16
2018-05-27T01:24:07.528Z,1017.12
2018-05-27T01:25:07.555Z,1017.14
2018-05-27T01:26:07.579Z,1017.14
2018-05-27T01:27:07.598Z,1017.11
2018-05-27T01:28:07.729Z,1017.13
2018-05-27T01:29:07.645Z,1017.14
2018-05-27T01:30:07.675Z,1017.17
2018-05-27T01:31:07.693Z,1017.11
2018-05-27T01:32:07.716Z,1017.15
2018-05-27T01:33:07.744Z,1017.11
2018-05-27T01:34:07.763Z,1017.09
2018-05-27T01:35:07.792Z,1017.1
2018-05-27T01:36:07.810Z,1017.1
2018-05-27T01:37:07.838Z,1017.08
2018-05-27T01:39:07.886Z,1017.12
2018-05-27T01:40:07.904Z,1017.1
2018-05-27T01:41:07.933Z,1017.12
2018-05-27T01:42:07.952Z,1017.11
2018-05-27T01:43:07.978Z,1017.1
2018-05-27T01:44:08.000Z,1017.1
2018-05-27T01:45:08.026Z,1017.11
2018-05-27T01:46:08.050Z,1017.1
2018-05-27T01:47:08.073Z,1017.07
2018-05-27T01:48:08.092Z,1017.06
2018-05-27T01:49:08.118Z,1017.08
2018-05-27T01:50:08.145Z,1017.03
2018-05-27T01:51:08.167Z,1017.03
2018-05-27T01:52:08.187Z,1017.04
2018-05-27T01:53:08.215Z,1017.04
2018-05-27T01:55:08.262Z,1017.05
2018-05-27T01:56:08.285Z,1017
2018-05-27T01:57:08.305Z,1016.99
2018-05-27T01:58:08.332Z,1017.01
2018-05-27T01:59:08.351Z,1016.98
2018-05-27T02:00:08.387Z,1017
2018-05-27T02:01:08.399Z,1016.96
2018-05-27T02:02:08.426Z,1016.93
2018-05-27T02:03:08.454Z,1016.94
2018-05-27T02:04:08.472Z,1016.94
2018-05-27T02:05:08.491Z,1016.91
2018-05-27T02:06:08.517Z,1016.9
2018-05-27T02:07:08.543Z,1016.88
2018-05-27T02:08:08.561Z,1016.89
2018-05-27T02:09:08.589Z,1016.86
2018-05-27T02:11:08.637Z,1016.9
2018-05-27T02:12:08.655Z,1016.9
2018-05-27T02:13:08.680Z,1016.93
2018-05-27T02:14:08.701Z,1016.9
2018-05-27T02:15:08.729Z,1016.93
2018-05-27T02:16:08.754Z,1016.91
2018-05-27T02:17:08.772Z,1016.88
2018-05-27T02:18:08.799Z,1016.88
2018-05-27T02:19:08.822Z,1016.86
2018-05-27T02:20:08.843Z,1016.83
2018-05-27T02:21:08.869Z,1016.85
2018-05-27T02:22:08.892Z,1016.89
2018-05-27T02:23:08.912Z,1016.85
2018-05-27T02:24:08.948Z,1016.85
2018-05-27T02:26:08.987Z,1016.91
2018-05-27T02:27:09.009Z,1016.91
2018-05-27T02:28:09.032Z,1016.89
2018-05-27T02:29:09.058Z,1016.9
2018-05-27T02:30:09.077Z,1016.89
2018-05-27T02:31:09.100Z,1016.91
2018-05-27T02:32:09.126Z,1016.93
2018-05-27T02:33:09.147Z,1016.92
2018-05-27T02:34:09.173Z,1016.96
2018-05-27T02:35:09.192Z,1016.97
2018-05-27T02:36:09.220Z,1016.96
2018-05-27T02:37:09.239Z,1016.92
2018-05-27T02:38:09.261Z,1016.9
2018-05-27T02:39:09.285Z,1016.88
2018-05-27T02:40:09.312Z,1016.86
2018-05-27T02:41:09.336Z,1016.88
2018-05-27T02:42:09.355Z,1016.84
2018-05-27T02:43:09.382Z,1016.83
2018-05-27T02:44:09.402Z,1016.85
2018-05-27T02:45:09.428Z,1016.87
2018-05-27T02:46:09.447Z,1016.85
2018-05-27T02:47:09.481Z,1016.83
2018-05-27T02:48:09.498Z,1016.83
2018-05-27T02:49:09.516Z,1016.87
2018-05-27T02:50:09.544Z,1016.83
2018-05-27T02:51:09.567Z,1016.84
2018-05-27T02:52:09.585Z,1016.86
2018-05-27T02:53:09.612Z,1016.86
2018-05-27T02:54:09.633Z,1016.85
2018-05-27T02:55:09.656Z,1016.87
2018-05-27T02:56:09.682Z,1016.87
2018-05-27T02:58:09.729Z,1016.88
2018-05-27T02:59:09.752Z,1016.88
2018-05-27T03:00:09.774Z,1016.84
2018-05-27T03:01:09.793Z,1016.83
2018-05-27T03:02:09.815Z,1016.81
2018-05-27T03:03:09.844Z,1016.86
2018-05-27T03:04:09.866Z,1016.82
2018-05-27T03:05:09.903Z,1016.82
2018-05-27T03:06:09.914Z,1016.82
2018-05-27T03:07:09.938Z,1016.83
2018-05-27T03:08:09.954Z,1016.81
2018-05-27T03:09:09.986Z,1016.75
2018-05-27T03:10:10.005Z,1016.76
2018-05-27T03:11:10.024Z,1016.8
2018-05-27T03:12:10.052Z,1016.8
2018-05-27T03:14:10.098Z,1016.82
2018-05-27T03:15:10.115Z,1016.81
2018-05-27T03:16:10.145Z,1016.83
2018-05-27T03:17:10.163Z,1016.86
2018-05-27T03:18:10.188Z,1016.85
2018-05-27T03:19:10.209Z,1016.87
2018-05-27T03:20:10.236Z,1016.85
2018-05-27T03:21:10.259Z,1016.86
2018-05-27T03:22:10.281Z,1016.82
2018-05-27T03:23:10.304Z,1016.87
2018-05-27T03:24:10.323Z,1016.84
2018-05-27T03:25:10.350Z,1016.87
2018-05-27T03:26:10.367Z,1016.82
2018-05-27T03:27:10.396Z,1016.81
2018-05-27T03:28:10.416Z,1016.81
2018-05-27T03:30:10.461Z,1016.81
2018-05-27T03:31:10.492Z,1016.79
2018-05-27T03:32:10.512Z,1016.82
2018-05-27T03:33:10.534Z,1016.85
2018-05-27T03:34:10.554Z,1016.84
2018-05-27T03:35:10.580Z,1016.81
2018-05-27T03:36:10.600Z,1016.78
2018-05-27T03:37:10.627Z,1016.82
2018-05-27T03:38:10.645Z,1016.8
2018-05-27T03:39:10.675Z,1016.8
2018-05-27T03:40:10.697Z,1016.81
2018-05-27T03:41:10.715Z,1016.85
2018-05-27T03:42:10.743Z,1016.87
2018-05-27T03:43:10.768Z,1016.87
2018-05-27T03:44:10.785Z,1016.82
2018-05-27T03:46:10.831Z,1016.79
2018-05-27T03:47:10.859Z,1016.81
2018-05-27T03:48:10.881Z,1016.85
2018-05-27T03:49:10.905Z,1016.84
2018-05-27T03:50:10.929Z,1016.74
2018-05-27T03:51:10.947Z,1016.8
2018-05-27T03:52:10.975Z,1016.77
2018-05-27T03:53:10.994Z,1016.8
2018-05-27T03:54:11.022Z,1016.75
2018-05-27T03:55:11.040Z,1016.79
2018-05-27T03:56:11.074Z,1016.76
2018-05-27T03:57:11.092Z,1016.77
2018-05-27T03:58:11.116Z,1016.78
2018-05-27T03:59:11.135Z,1016.73
2018-05-27T04:01:11.186Z,1016.78
2018-05-27T04:02:11.203Z,1016.79
2018-05-27T04:03:11.232Z,1016.78
2018-05-27T04:04:11.256Z,1016.78
2018-05-27T04:05:11.279Z,1016.79
2018-05-27T04:06:11.298Z,1016.76
2018-05-27T04:07:11.322Z,1016.77
2018-05-27T04:08:11.349Z,1016.76
2018-05-27T04:09:11.368Z,1016.81
2018-05-27T04:10:11.396Z,1016.82
2018-05-27T04:11:11.419Z,1016.81
2018-05-27T04:12:11.444Z,1016.78
2018-05-27T04:13:11.467Z,1016.75
2018-05-27T04:14:11.493Z,1016.81
2018-05-27T04:15:11.514Z,1016.79
2018-05-27T04:16:11.539Z,1016.75
2018-05-27T04:17:11.559Z,1016.75
2018-05-27T04:18:11.581Z,1016.81
2018-05-27T04:19:11.605Z,1016.77
2018-05-27T04:20:11.633Z,1016.77
2018-05-27T04:21:11.656Z,1016.8
2018-05-27T04:22:11.677Z,1016.8
2018-05-27T04:23:11.706Z,1016.78
2018-05-27T04:24:11.724Z,1016.73
2018-05-27T04:25:11.753Z,1016.75
2018-05-27T04:26:11.773Z,1016.74
2018-05-27T04:27:11.801Z,1016.76
2018-05-27T04:28:11.824Z,1016.76
2018-05-27T04:29:11.849Z,1016.72
2018-05-27T04:30:11.872Z,1016.76
2018-05-27T04:31:11.892Z,1016.78
2018-05-27T04:33:11.944Z,1016.83
2018-05-27T04:34:11.969Z,1016.86
2018-05-27T04:35:11.988Z,1016.95
2018-05-27T04:36:12.017Z,1017.02
2018-05-27T04:37:12.036Z,1017.08
2018-05-27T04:38:12.075Z,1017.06
2018-05-27T04:39:12.086Z,1017.05
2018-05-27T04:40:12.110Z,1017.11
2018-05-27T04:41:12.135Z,1017.1
2018-05-27T04:42:12.164Z,1017.1
2018-05-27T04:43:12.185Z,1017.1
2018-05-27T04:44:12.215Z,1017.2
2018-05-27T04:45:12.236Z,1017.17
2018-05-27T04:46:12.266Z,1017.17
2018-05-27T04:47:12.288Z,1017.14
2018-05-27T04:49:12.345Z,1017.16
2018-05-27T04:50:12.367Z,1017.16
2018-05-27T04:51:12.399Z,1017.12
2018-05-27T04:52:12.422Z,1017.17
2018-05-27T04:53:12.452Z,1017.21
2018-05-27T04:54:12.476Z,1017.24
2018-05-27T04:55:12.507Z,1017.2
2018-05-27T04:56:12.531Z,1017.22
2018-05-27T04:57:12.562Z,1017.27
2018-05-27T04:58:12.595Z,1017.24
2018-05-27T04:59:12.620Z,1017.27
2018-05-27T05:00:12.643Z,1017.33
2018-05-27T05:01:12.671Z,1017.31
2018-05-27T05:02:12.703Z,1017.37
2018-05-27T05:03:12.728Z,1017.43
2018-05-27T05:05:12.788Z,1017.5
2018-05-27T05:06:12.821Z,1017.57
2018-05-27T05:07:12.848Z,1017.62
2018-05-27T05:08:12.876Z,1017.62
2018-05-27T05:09:12.902Z,1017.64
2018-05-27T05:10:12.936Z,1017.62
2018-05-27T05:11:12.961Z,1017.61
2018-05-27T05:12:12.995Z,1017.69
2018-05-27T05:13:13.025Z,1017.69
2018-05-27T05:14:13.054Z,1017.71
2018-05-27T05:15:13.084Z,1017.74
2018-05-27T05:16:13.165Z,1017.72
2018-05-27T05:17:13.141Z,1017.77
2018-05-27T05:18:13.176Z,1017.75
2018-05-27T05:19:13.207Z,1017.77
2018-05-27T05:21:13.263Z,1017.81
2018-05-27T05:22:13.333Z,1017.74
2018-05-27T05:23:13.324Z,1017.69
2018-05-27T05:24:13.362Z,1017.71
2018-05-27T05:25:13.387Z,1017.69
2018-05-27T05:26:13.422Z,1017.69
2018-05-27T05:27:13.448Z,1017.72
2018-05-27T05:28:13.480Z,1017.74
2018-05-27T05:29:13.512Z,1017.69
2018-05-27T05:30:13.546Z,1017.7
2018-05-27T05:31:13.577Z,1017.73
2018-05-27T05:32:13.610Z,1017.75
2018-05-27T05:33:13.643Z,1017.72
2018-05-27T05:34:13.673Z,1017.73
2018-05-27T05:36:13.738Z,1017.72
2018-05-27T05:37:13.765Z,1017.75
2018-05-27T05:38:13.799Z,1017.75
2018-05-27T05:39:13.830Z,1017.78
2018-05-27T05:40:13.867Z,1017.76
2018-05-27T05:41:13.906Z,1017.79
2018-05-27T05:42:13.927Z,1017.82
2018-05-27T05:43:13.963Z,1017.79
2018-05-27T05:44:13.990Z,1017.82
2018-05-27T05:45:14.028Z,1017.82
2018-05-27T05:46:14.057Z,1017.84
2018-05-27T05:47:14.094Z,1017.85
2018-05-27T05:48:14.126Z,1017.88
2018-05-27T05:49:14.211Z,1017.84
2018-05-27T05:50:14.189Z,1017.85
2018-05-27T05:51:14.221Z,1017.83
2018-05-27T05:52:14.261Z,1017.87
2018-05-27T05:53:14.287Z,1017.88
2018-05-27T05:54:14.325Z,1017.85
2018-05-27T05:55:14.354Z,1017.85
2018-05-27T05:56:14.394Z,1017.83
2018-05-27T05:57:14.421Z,1017.79
2018-05-27T05:58:14.459Z,1017.81
2018-05-27T05:59:14.488Z,1017.78
2018-05-27T06:00:14.525Z,1017.78
2018-05-27T06:01:14.609Z,1017.71
2018-05-27T06:02:14.594Z,1017.7
2018-05-27T06:03:14.623Z,1017.7
2018-05-27T06:04:14.662Z,1017.72
2018-05-27T06:05:14.691Z,1017.73
2018-05-27T06:06:14.729Z,1017.7
2018-05-27T06:08:14.793Z,1017.71
2018-05-27T06:09:14.833Z,1017.7
2018-05-27T06:10:14.867Z,1017.72
2018-05-27T06:11:14.901Z,1017.79
2018-05-27T06:12:14.932Z,1017.8
2018-05-27T06:13:14.971Z,1017.84
2018-05-27T06:14:15.002Z,1017.88
2018-05-27T06:15:15.041Z,1017.93
2018-05-27T06:16:15.072Z,1017.97
2018-05-27T06:17:15.111Z,1018.01
2018-05-27T06:18:15.146Z,1018.06
2018-05-27T06:19:15.188Z,1018.04
2018-05-27T06:20:15.212Z,1018.12
2018-05-27T06:21:15.246Z,1018.11
2018-05-27T06:22:15.286Z,1018.04
2018-05-27T06:24:15.363Z,1018.27
2018-05-27T06:25:15.392Z,1018.33
2018-05-27T06:26:15.423Z,1018.34
2018-05-27T06:27:15.463Z,1018.34
2018-05-27T06:28:15.498Z,1018.26
2018-05-27T06:29:15.529Z,1018.27
2018-05-27T06:30:15.569Z,1018.31
2018-05-27T06:31:15.601Z,1018.28
2018-05-27T06:32:15.640Z,1018.26
2018-05-27T06:33:15.672Z,1018.25
2018-05-27T06:34:15.713Z,1018.22
2018-05-27T06:35:15.751Z,1018.24
2018-05-27T06:36:15.784Z,1018.28
2018-05-27T06:37:15.815Z,1018.21
2018-05-27T06:38:15.850Z,1018.15
2018-05-27T06:40:15.921Z,1018.05
2018-05-27T06:41:15.964Z,1018.09
2018-05-27T06:42:16.000Z,1018.08
2018-05-27T06:43:16.034Z,1018.07
2018-05-27T06:44:16.067Z,1018.12
2018-05-27T06:45:16.105Z,1018.17
2018-05-27T06:46:16.145Z,1018.18
2018-05-27T06:47:16.177Z,1018.17
2018-05-27T06:48:16.223Z,1018.23
2018-05-27T06:49:16.249Z,1018.25
2018-05-27T06:50:16.288Z,1018.25
2018-05-27T06:51:16.366Z,1018.33
2018-05-27T06:52:16.363Z,1018.36
2018-05-27T06:53:16.394Z,1018.34
2018-05-27T06:54:16.434Z,1018.35
2018-05-27T06:56:16.508Z,1018.31
2018-05-27T06:57:16.541Z,1018.33
2018-05-27T06:58:16.580Z,1018.33
2018-05-27T06:59:16.617Z,1018.34
2018-05-27T07:00:16.653Z,1018.29
2018-05-27T07:01:16.689Z,1018.33
2018-05-27T07:02:16.823Z,1018.3
2018-05-27T07:03:16.763Z,1018.33
2018-05-27T07:04:16.796Z,1018.34
2018-05-27T07:05:16.838Z,1018.31
2018-05-27T07:06:16.872Z,1018.47
2018-05-27T07:07:16.911Z,1018.78
2018-05-27T07:08:16.944Z,1019
2018-05-27T07:09:16.985Z,1019.06
2018-05-27T07:11:17.059Z,1019.17
2018-05-27T07:12:17.101Z,1019.16
2018-05-27T07:13:17.128Z,1019.19
2018-05-27T07:14:17.170Z,1019.19
2018-05-27T07:15:17.209Z,1019.2
2018-05-27T07:16:17.243Z,1019.21
2018-05-27T07:17:17.275Z,1019.2
2018-05-27T07:18:17.317Z,1019.2
2018-05-27T07:19:17.354Z,1019.18
2018-05-27T07:20:17.387Z,1019.12
2018-05-27T07:21:17.429Z,1019.2
2018-05-27T07:22:17.466Z,1019.26
2018-05-27T07:23:17.498Z,1019.29
2018-05-27T07:24:17.536Z,1019.31
2018-05-27T07:25:17.574Z,1019.3
2018-05-27T07:26:17.615Z,1019.19
2018-05-27T07:27:17.648Z,1019.23
2018-05-27T07:28:17.691Z,1019.25
2018-05-27T07:29:17.727Z,1019.25
2018-05-27T07:30:17.760Z,1019.32
2018-05-27T07:31:17.797Z,1019.29
2018-05-27T07:32:17.851Z,1019.23
2018-05-27T07:33:17.876Z,1019.21
2018-05-27T07:34:17.909Z,1019.08
2018-05-27T07:35:17.949Z,1019.03
2018-05-27T07:36:17.987Z,1019.03
2018-05-27T07:37:18.026Z,1018.99
2018-05-27T07:38:18.058Z,1018.94
2018-05-27T07:39:18.096Z,1018.95
2018-05-27T07:40:18.139Z,1018.91
2018-05-27T07:41:18.223Z,1018.82
2018-05-27T07:43:18.245Z,1018.68
2018-05-27T07:44:18.289Z,1018.7
2018-05-27T07:45:18.319Z,1018.7
2018-05-27T07:46:18.356Z,1018.67
2018-05-27T07:47:18.399Z,1018.61
2018-05-27T07:48:18.431Z,1018.56
2018-05-27T07:49:18.471Z,1018.58
2018-05-27T07:50:18.511Z,1018.54
2018-05-27T07:51:18.553Z,1018.51
2018-05-27T07:52:18.585Z,1018.48
2018-05-27T07:53:18.619Z,1018.45
2018-05-27T07:54:18.663Z,1018.42
2018-05-27T07:55:18.696Z,1018.41
2018-05-27T07:56:18.730Z,1018.35
2018-05-27T07:57:18.769Z,1018.38
2018-05-27T07:59:18.847Z,1018.27
2018-05-27T08:00:18.878Z,1018.29
2018-05-27T08:01:18.921Z,1018.22
2018-05-27T08:02:18.953Z,1018.22
2018-05-27T08:03:18.996Z,1018.21
2018-05-27T08:04:19.029Z,1018.2
2018-05-27T08:05:19.071Z,1018.17
2018-05-27T08:06:19.105Z,1018.16
2018-05-27T08:07:19.146Z,1018.13
2018-05-27T08:08:19.179Z,1018.1
2018-05-27T08:09:19.216Z,1018.12
2018-05-27T08:10:19.255Z,1018.12
2018-05-27T08:11:19.298Z,1018.13
2018-05-27T08:12:19.328Z,1018.1
2018-05-27T08:13:19.370Z,1018.13
2018-05-27T08:15:19.445Z,1018.14
2018-05-27T08:16:19.481Z,1018.15
2018-05-27T08:17:19.520Z,1018.08
2018-05-27T08:18:19.553Z,1018.08
2018-05-27T08:19:19.592Z,1018.08
2018-05-27T08:20:19.632Z,1018.09
2018-05-27T08:21:19.664Z,1018.1
2018-05-27T08:22:19.707Z,1018.09
2018-05-27T08:23:19.748Z,1018.09
2018-05-27T08:24:19.781Z,1018.09
2018-05-27T08:25:19.814Z,1018.1
2018-05-27T08:26:19.851Z,1018.05
2018-05-27T08:27:19.892Z,1018.08
2018-05-27T08:28:19.930Z,1018.02
2018-05-27T08:29:19.967Z,1017.97
2018-05-27T08:31:20.041Z,1017.93
2018-05-27T08:32:20.079Z,1017.93
2018-05-27T08:33:20.115Z,1017.94
2018-05-27T08:34:20.146Z,1017.95
2018-05-27T08:35:20.189Z,1017.98
2018-05-27T08:36:20.225Z,1018.1
2018-05-27T08:37:20.259Z,1018.12
2018-05-27T08:38:20.300Z,1018.17
2018-05-27T08:39:20.344Z,1018.17
2018-05-27T08:40:20.368Z,1018.15
2018-05-27T08:41:20.410Z,1018.11
2018-05-27T08:42:20.444Z,1018.08
2018-05-27T08:43:20.484Z,1018.02
2018-05-27T08:44:20.519Z,1018.04
2018-05-27T08:46:20.596Z,1018.04
2018-05-27T08:47:20.629Z,1018.01
2018-05-27T08:48:20.670Z,1017.85
2018-05-27T08:49:20.703Z,1017.79
2018-05-27T08:50:20.745Z,1017.81
2018-05-27T08:51:20.778Z,1017.78
2018-05-27T08:52:20.819Z,1017.77
2018-05-27T08:53:20.855Z,1017.8
2018-05-27T08:54:20.890Z,1017.76
2018-05-27T08:55:20.922Z,1017.78
2018-05-27T08:56:20.963Z,1017.72
2018-05-27T08:57:21.017Z,1017.72
2018-05-27T08:58:21.036Z,1017.67
2018-05-27T08:59:21.067Z,1017.68
2018-05-27T09:00:21.107Z,1017.66
2018-05-27T09:01:21.223Z,1017.61
2018-05-27T09:02:21.181Z,1017.64
2018-05-27T09:03:21.217Z,1017.65
2018-05-27T09:04:21.248Z,1017.62
2018-05-27T09:05:21.290Z,1017.62
2018-05-27T09:06:21.325Z,1017.6
2018-05-27T09:07:21.359Z,1017.62
2018-05-27T09:08:21.402Z,1017.58
2018-05-27T09:09:21.431Z,1017.61
2018-05-27T09:10:21.465Z,1017.63
2018-05-27T09:11:21.514Z,1017.6
2018-05-27T09:12:21.538Z,1017.61
2018-05-27T09:13:21.578Z,1017.58
2018-05-27T09:14:21.610Z,1017.63
2018-05-27T09:15:21.666Z,1017.53
2018-05-27T09:16:21.681Z,1017.54
2018-05-27T09:18:21.759Z,1017.52
2018-05-27T09:19:21.789Z,1017.47
2018-05-27T09:20:21.828Z,1017.47
2018-05-27T09:21:21.864Z,1017.43
2018-05-27T09:22:21.895Z,1017.42
2018-05-27T09:23:21.931Z,1017.41
2018-05-27T09:24:21.966Z,1017.39
2018-05-27T09:25:22.006Z,1017.42
2018-05-27T09:26:22.038Z,1017.39
2018-05-27T09:27:22.076Z,1017.41
2018-05-27T09:28:22.107Z,1017.4
2018-05-27T09:29:22.147Z,1017.41
2018-05-27T09:30:22.182Z,1017.38
2018-05-27T09:31:22.218Z,1017.4
2018-05-27T09:32:22.248Z,1017.47
2018-05-27T09:34:22.320Z,1017.37
2018-05-27T09:35:22.359Z,1017.44
2018-05-27T09:36:22.392Z,1017.4
2018-05-27T09:37:22.430Z,1017.41
2018-05-27T09:38:22.458Z,1017.44
2018-05-27T09:39:22.503Z,1017.44
2018-05-27T09:40:22.535Z,1017.42
2018-05-27T09:41:22.567Z,1017.4
2018-05-27T09:42:22.606Z,1017.4
2018-05-27T09:43:22.637Z,1017.39
2018-05-27T09:44:22.676Z,1017.37
2018-05-27T09:45:22.773Z,1017.35
2018-05-27T09:46:22.746Z,1017.33
2018-05-27T09:47:22.778Z,1017.34
2018-05-27T09:48:22.814Z,1017.35
2018-05-27T09:50:22.883Z,1017.28
2018-05-27T09:51:22.959Z,1017.32
2018-05-27T09:52:22.958Z,1017.29
2018-05-27T09:53:22.988Z,1017.29
2018-05-27T09:54:23.027Z,1017.27
2018-05-27T09:55:23.061Z,1017.29
2018-05-27T09:56:23.099Z,1017.25
2018-05-27T09:57:23.128Z,1017.29
2018-05-27T09:58:23.168Z,1017.3
2018-05-27T09:59:23.199Z,1017.33
2018-05-27T10:00:23.236Z,1017.3
2018-05-27T10:01:23.268Z,1017.33
2018-05-27T10:02:23.307Z,1017.32
2018-05-27T10:03:23.344Z,1017.34
2018-05-27T10:04:23.372Z,1017.33
2018-05-27T10:06:23.447Z,1017.35
2018-05-27T10:07:23.478Z,1017.31
2018-05-27T10:08:23.523Z,1017.29
2018-05-27T10:09:23.553Z,1017.3
2018-05-27T10:10:23.586Z,1017.3
2018-05-27T10:11:23.616Z,1017.28
2018-05-27T10:12:23.651Z,1017.3
2018-05-27T10:13:23.690Z,1017.29
2018-05-27T10:14:23.721Z,1017.24
2018-05-27T10:15:23.801Z,1017.24
2018-05-27T10:16:23.797Z,1017.28
2018-05-27T10:17:23.829Z,1017.25
2018-05-27T10:18:23.860Z,1017.18
2018-05-27T10:19:23.898Z,1017.22
2018-05-27T10:21:23.968Z,1017.17
2018-05-27T10:22:24.001Z,1017.15
2018-05-27T10:23:24.035Z,1017.14
2018-05-27T10:24:24.065Z,1017.13
2018-05-27T10:25:24.101Z,1017.15
2018-05-27T10:26:24.139Z,1017.1
2018-05-27T10:27:24.169Z,1017.11
2018-05-27T10:28:24.207Z,1017.09
2018-05-27T10:29:24.241Z,1017.05
2018-05-27T10:30:24.271Z,1017.08
2018-05-27T10:31:24.310Z,1017.14
2018-05-27T10:32:24.344Z,1017.07
2018-05-27T10:33:24.374Z,1017.07
2018-05-27T10:34:24.407Z,1017.06
2018-05-27T10:35:24.442Z,1017.08
2018-05-27T10:36:24.480Z,1017.11
2018-05-27T10:37:24.509Z,1016.99
2018-05-27T10:38:24.547Z,1016.99
2018-05-27T10:39:24.581Z,1017.01
2018-05-27T10:40:24.615Z,1016.96
2018-05-27T10:41:24.645Z,1016.98
2018-05-27T10:42:24.683Z,1016.99
2018-05-27T10:43:24.717Z,1016.96
2018-05-27T10:44:24.746Z,1016.99
2018-05-27T10:45:24.780Z,1016.99
2018-05-27T10:46:24.818Z,1017
2018-05-27T10:47:24.868Z,1016.97
2018-05-27T10:48:24.884Z,1017.03
2018-05-27T10:49:24.915Z,1016.98
2018-05-27T10:50:24.953Z,1017.05
2018-05-27T10:51:24.980Z,1016.93
2018-05-27T10:53:25.048Z,1016.9
2018-05-27T10:54:25.085Z,1016.9
2018-05-27T10:55:25.113Z,1016.89
2018-05-27T10:56:25.151Z,1016.88
2018-05-27T10:57:25.183Z,1016.9
2018-05-27T10:58:25.216Z,1016.87
2018-05-27T10:59:25.251Z,1016.91
2018-05-27T11:00:25.282Z,1016.88
2018-05-27T11:01:25.311Z,1016.86
2018-05-27T11:02:25.347Z,1016.88
2018-05-27T11:03:25.376Z,1016.89
2018-05-27T11:04:25.412Z,1016.88
2018-05-27T11:05:25.446Z,1016.81
2018-05-27T11:06:25.477Z,1016.8
2018-05-27T11:07:25.504Z,1016.73
2018-05-27T11:09:25.575Z,1016.7
2018-05-27T11:10:25.611Z,1016.71
2018-05-27T11:11:25.640Z,1016.7
2018-05-27T11:12:25.672Z,1016.74
2018-05-27T11:13:25.704Z,1016.76
2018-05-27T11:14:25.739Z,1016.72
2018-05-27T11:15:25.764Z,1016.68
2018-05-27T11:16:25.801Z,1016.7
2018-05-27T11:17:25.830Z,1016.65
2018-05-27T11:18:25.865Z,1016.64
2018-05-27T11:19:25.893Z,1016.65
2018-05-27T11:20:25.929Z,1016.64
2018-05-27T11:21:25.956Z,1016.67
2018-05-27T11:22:26.002Z,1016.62
2018-05-27T11:23:26.025Z,1016.63
2018-05-27T11:25:26.085Z,1016.62
2018-05-27T11:26:26.121Z,1016.59
2018-05-27T11:27:26.149Z,1016.58
2018-05-27T11:28:26.185Z,1016.59
2018-05-27T11:29:26.216Z,1016.62
2018-05-27T11:30:26.249Z,1016.57
2018-05-27T11:31:26.277Z,1016.57
2018-05-27T11:32:26.307Z,1016.52
2018-05-27T11:33:26.342Z,1016.54
2018-05-27T11:34:26.371Z,1016.49
2018-05-27T11:35:26.420Z,1016.46
2018-05-27T11:36:26.433Z,1016.41
2018-05-27T11:37:26.469Z,1016.33
2018-05-27T11:38:26.497Z,1016.34
2018-05-27T11:39:26.529Z,1016.31
2018-05-27T11:41:26.591Z,1016.36
2018-05-27T11:42:26.679Z,1016.3
2018-05-27T11:43:26.658Z,1016.29
2018-05-27T11:44:26.690Z,1016.35
2018-05-27T11:45:26.718Z,1016.28
2018-05-27T11:46:26.748Z,1016.28
2018-05-27T11:47:26.784Z,1016.24
2018-05-27T11:48:26.816Z,1016.21
2018-05-27T11:49:26.845Z,1016.21
2018-05-27T11:50:26.881Z,1016.27
2018-05-27T11:51:26.907Z,1016.21
2018-05-27T11:52:26.942Z,1016.24
2018-05-27T11:53:26.983Z,1016.23
2018-05-27T11:54:27.001Z,1016.19
2018-05-27T11:56:27.066Z,1016.12
2018-05-27T11:57:27.099Z,1016.14
2018-05-27T11:58:27.127Z,1016.15
2018-05-27T11:59:27.164Z,1016.2
2018-05-27T12:00:27.195Z,1016.13
2018-05-27T12:01:27.221Z,1016.12
2018-05-27T12:02:27.257Z,1016.1
2018-05-27T12:03:27.285Z,1016.09
2018-05-27T12:04:27.316Z,1016.08
2018-05-27T12:05:27.349Z,1016.05
2018-05-27T12:06:27.383Z,1016.06
2018-05-27T12:07:27.415Z,1016.03
2018-05-27T12:08:27.442Z,1016
2018-05-27T12:09:27.599Z,1015.98
2018-05-27T12:10:27.506Z,1015.96
2018-05-27T12:11:27.542Z,1015.93
2018-05-27T12:12:27.568Z,1015.93
2018-05-27T12:13:27.604Z,1015.9
2018-05-27T12:14:27.636Z,1015.92
2018-05-27T12:15:27.663Z,1015.93
2018-05-27T12:16:27.701Z,1015.9
2018-05-27T12:17:27.732Z,1015.92
2018-05-27T12:18:27.757Z,1015.93
2018-05-27T12:19:27.793Z,1015.9
2018-05-27T12:20:27.821Z,1015.86
2018-05-27T12:21:27.853Z,1015.85
2018-05-27T12:22:27.885Z,1015.88
2018-05-27T12:23:27.919Z,1015.86
2018-05-27T12:24:27.950Z,1015.86
2018-05-27T12:25:27.979Z,1015.88
2018-05-27T12:26:28.013Z,1015.88
2018-05-27T12:28:28.076Z,1015.87
2018-05-27T12:29:28.108Z,1015.84
2018-05-27T12:30:28.138Z,1015.9
2018-05-27T12:31:28.168Z,1015.88
2018-05-27T12:32:28.198Z,1015.93
2018-05-27T12:33:28.235Z,1015.96
2018-05-27T12:34:28.261Z,1015.92
2018-05-27T12:35:28.289Z,1016.07
2018-05-27T12:36:28.324Z,1016.21
2018-05-27T12:37:28.349Z,1016.06
2018-05-27T12:38:28.385Z,1016.15
2018-05-27T12:39:28.410Z,1016.11
2018-05-27T12:40:28.446Z,1016.02
2018-05-27T12:41:28.475Z,1016.13
2018-05-27T12:42:28.503Z,1016.21
2018-05-27T12:44:28.567Z,1016.32
2018-05-27T12:45:28.591Z,1016.2
2018-05-27T12:46:28.625Z,1016.16
2018-05-27T12:47:28.751Z,1016.1
2018-05-27T12:48:28.679Z,1016.1
2018-05-27T12:49:28.714Z,1016.04